KNFE

Fentress Nalf Airport

Fentress, Virginia, USA
METAR KNFE 231056Z AUTO VRB05KT 10SM CLR 23/21 A3000 RMK AO2 SLP160 T02280206
Observed Flight Rules
May-23 @ 10:56 UTC (13 minutes ago) Visual Flight Rules
Wind Visibility Clouds
Variable at 5 knots 10 miles
  • Clear skies
Temperatures Readings
Current 23°C / 73°F
Dewpoint 21°C / 70°F
Humidity 89%
Altimeter 30" Hg
Pressure 1016 hPa
Elevation 5
METAR KNFE 231056Z AUTO VRB05KT 10SM CLR 23/21 A3000 RMK AO2 SLP160 T02280206
Observed Flight Rules
May-23 @ 10:56 UTC
(13 minutes ago)
VFR
Wind Visibility
Variable at 5 knots 10 miles
Clouds
  • Clear skies
Temperature Dewpoint
23°C / 73°F 21°C / 70°F
Humidity Altimeter Pressure
89% 30" Hg 1016 hPa